sensor_id;sensor_type;location;lat;lon;timestamp;pressure;altitude;pressure_sealevel;temperature;humidity
79686;BME280;69153;47.918;11.428;2023-06-22T00:02:22;95199.75;;;23.19;52.35
79686;BME280;69153;47.918;11.428;2023-06-22T00:04:48;95206.63;;;23.20;51.80
79686;BME280;69153;47.918;11.428;2023-06-22T00:07:13;95203.66;;;23.23;51.96
79686;BME280;69153;47.918;11.428;2023-06-22T00:09:38;95191.84;;;23.26;51.74
79686;BME280;69153;47.918;11.428;2023-06-22T00:12:04;95194.25;;;23.35;51.58
79686;BME280;69153;47.918;11.428;2023-06-22T00:14:30;95195.56;;;23.23;51.65
79686;BME280;69153;47.918;11.428;2023-06-22T00:16:55;95198.03;;;23.15;52.16
79686;BME280;69153;47.918;11.428;2023-06-22T00:19:23;95201.22;;;23.20;51.84
79686;BME280;69153;47.918;11.428;2023-06-22T00:21:49;95198.75;;;23.22;52.16
79686;BME280;69153;47.918;11.428;2023-06-22T00:24:19;95185.94;;;23.28;51.55
79686;BME280;69153;47.918;11.428;2023-06-22T00:26:44;95184.19;;;23.30;51.84
79686;BME280;69153;47.918;11.428;2023-06-22T00:29:10;95186.41;;;23.32;51.82
79686;BME280;69153;47.918;11.428;2023-06-22T00:31:35;95186.66;;;23.34;51.51
79686;BME280;69153;47.918;11.428;2023-06-22T00:34:01;95192.78;;;23.34;51.26
79686;BME280;69153;47.918;11.428;2023-06-22T00:36:26;95194.75;;;23.34;51.52
79686;BME280;69153;47.918;11.428;2023-06-22T00:38:51;95187.63;;;23.31;51.69
79686;BME280;69153;47.918;11.428;2023-06-22T00:41:17;95187.22;;;23.21;51.77
79686;BME280;69153;47.918;11.428;2023-06-22T00:43:43;95182.31;;;23.14;51.58
79686;BME280;69153;47.918;11.428;2023-06-22T00:46:08;95177.94;;;23.05;51.99
79686;BME280;69153;47.918;11.428;2023-06-22T00:48:34;95186.56;;;22.98;52.33
79686;BME280;69153;47.918;11.428;2023-06-22T00:51:02;95174.56;;;22.88;52.59
79686;BME280;69153;47.918;11.428;2023-06-22T00:53:28;95181.47;;;22.84;52.29
79686;BME280;69153;47.918;11.428;2023-06-22T00:55:55;95175.56;;;22.74;52.72
79686;BME280;69153;47.918;11.428;2023-06-22T00:58:21;95167.94;;;22.72;52.58
79686;BME280;69153;47.918;11.428;2023-06-22T01:00:47;95171.91;;;22.66;53.11
79686;BME280;69153;47.918;11.428;2023-06-22T01:03:14;95166.50;;;22.66;53.01
79686;BME280;69153;47.918;11.428;2023-06-22T01:05:41;95165.03;;;22.59;53.36
79686;BME280;69153;47.918;11.428;2023-06-22T01:08:27;95161.16;;;22.55;53.63
79686;BME280;69153;47.918;11.428;2023-06-22T01:11:07;95162.88;;;22.52;53.19
79686;BME280;69153;47.918;11.428;2023-06-22T01:16:27;95159.44;;;22.46;53.37
79686;BME280;69153;47.918;11.428;2023-06-22T01:18:57;95150.63;;;22.40;53.44
79686;BME280;69153;47.918;11.428;2023-06-22T01:21:28;95146.69;;;22.41;53.42
79686;BME280;69153;47.918;11.428;2023-06-22T01:29:38;95150.41;;;22.27;53.95
79686;BME280;69153;47.918;11.428;2023-06-22T01:32:06;95146.00;;;22.24;54.61
79686;BME280;69153;47.918;11.428;2023-06-22T01:34:33;95137.41;;;22.25;54.20
79686;BME280;69153;47.918;11.428;2023-06-22T01:37:02;95137.91;;;22.24;54.76
79686;BME280;69153;47.918;11.428;2023-06-22T01:39:29;95140.34;;;22.22;54.64
79686;BME280;69153;47.918;11.428;2023-06-22T01:41:56;95147.97;;;22.23;54.76
79686;BME280;69153;47.918;11.428;2023-06-22T01:44:24;95146.00;;;22.24;55.31
79686;BME280;69153;47.918;11.428;2023-06-22T01:46:52;95144.03;;;22.30;55.22
79686;BME280;69153;47.918;11.428;2023-06-22T01:49:17;95140.34;;;22.33;55.51
79686;BME280;69153;47.918;11.428;2023-06-22T01:51:43;95140.31;;;22.38;55.25
79686;BME280;69153;47.918;11.428;2023-06-22T01:54:08;95141.78;;;22.39;55.57
79686;BME280;69153;47.918;11.428;2023-06-22T01:56:35;95143.75;;;22.39;54.99
79686;BME280;69153;47.918;11.428;2023-06-22T01:59:11;95144.50;;;22.39;55.30
79686;BME280;69153;47.918;11.428;2023-06-22T02:02:00;95139.34;;;22.41;55.66
79686;BME280;69153;47.918;11.428;2023-06-22T02:04:34;95142.53;;;22.40;55.39
79686;BME280;69153;47.918;11.428;2023-06-22T02:07:08;95145.72;;;22.38;55.82
79686;BME280;69153;47.918;11.428;2023-06-22T02:09:37;95138.34;;;22.39;55.89
79686;BME280;69153;47.918;11.428;2023-06-22T02:12:06;95141.78;;;22.39;56.00
79686;BME280;69153;47.918;11.428;2023-06-22T02:14:34;95143.25;;;22.40;56.33
79686;BME280;69153;47.918;11.428;2023-06-22T02:17:00;95142.03;;;22.41;56.32
79686;BME280;69153;47.918;11.428;2023-06-22T02:19:27;95138.59;;;22.41;56.14
79686;BME280;69153;47.918;11.428;2023-06-22T02:21:52;95145.72;;;22.38;56.48
79686;BME280;69153;47.918;11.428;2023-06-22T02:24:18;95145.72;;;22.38;56.35
79686;BME280;69153;47.918;11.428;2023-06-22T02:26:43;95162.16;;;22.40;56.01
79686;BME280;69153;47.918;11.428;2023-06-22T02:29:10;95150.63;;;22.40;56.07
79686;BME280;69153;47.918;11.428;2023-06-22T02:31:36;95144.97;;;22.38;56.34
79686;BME280;69153;47.918;11.428;2023-06-22T02:34:01;95150.63;;;22.34;56.40
79686;BME280;69153;47.918;11.428;2023-06-22T02:36:27;95160.44;;;22.37;56.47
79686;BME280;69153;47.918;11.428;2023-06-22T02:38:55;95149.16;;;22.33;56.41
79686;BME280;69153;47.918;11.428;2023-06-22T02:41:26;95154.84;;;22.30;56.71
79686;BME280;69153;47.918;11.428;2023-06-22T02:43:51;95154.84;;;22.24;56.72
79686;BME280;69153;47.918;11.428;2023-06-22T02:46:17;95162.19;;;22.24;56.53
79686;BME280;69153;47.918;11.428;2023-06-22T02:48:44;95161.94;;;22.22;56.83
79686;BME280;69153;47.918;11.428;2023-06-22T02:51:09;95164.91;;;22.18;57.21
79686;BME280;69153;47.918;11.428;2023-06-22T02:53:34;95167.59;;;22.13;57.04
79686;BME280;69153;47.918;11.428;2023-06-22T02:56:02;95171.53;;;22.12;56.96
79686;BME280;69153;47.918;11.428;2023-06-22T02:58:31;95176.94;;;22.06;56.83
79686;BME280;69153;47.918;11.428;2023-06-22T03:01:04;95168.84;;;22.06;56.88
79686;BME280;69153;47.918;11.428;2023-06-22T03:03:30;95181.09;;;21.90;57.36
79686;BME280;69153;47.918;11.428;2023-06-22T03:05:55;95171.03;;;21.91;57.21
79686;BME280;69153;47.918;11.428;2023-06-22T03:08:21;95165.88;;;21.87;57.38
79686;BME280;69153;47.918;11.428;2023-06-22T03:10:46;95172.50;;;21.86;57.39
79686;BME280;69153;47.918;11.428;2023-06-22T03:13:11;95168.31;;;21.85;57.05
79686;BME280;69153;47.918;11.428;2023-06-22T03:15:37;95163.69;;;21.80;57.38
79686;BME280;69153;47.918;11.428;2023-06-22T03:18:02;95165.16;;;21.75;57.21
79686;BME280;69153;47.918;11.428;2023-06-22T03:20:28;95154.59;;;21.72;57.03
79686;BME280;69153;47.918;11.428;2023-06-22T03:22:59;95163.91;;;21.60;57.93
79686;BME280;69153;47.918;11.428;2023-06-22T03:25:24;95160.47;;;21.59;57.33
79686;BME280;69153;47.918;11.428;2023-06-22T03:27:49;95167.34;;;21.55;57.55
79686;BME280;69153;47.918;11.428;2023-06-22T03:30:15;95157.53;;;21.52;57.80
79686;BME280;69153;47.918;11.428;2023-06-22T03:32:40;95154.09;;;21.51;57.84
79686;BME280;69153;47.918;11.428;2023-06-22T03:35:06;95154.34;;;21.53;57.67
79686;BME280;69153;47.918;11.428;2023-06-22T03:37:32;95164.88;;;21.51;57.78
79686;BME280;69153;47.918;11.428;2023-06-22T03:39:57;95169.78;;;21.53;58.03
79686;BME280;69153;47.918;11.428;2023-06-22T03:42:23;95166.09;;;21.50;57.86
79686;BME280;69153;47.918;11.428;2023-06-22T03:44:48;95166.59;;;21.54;57.87
79686;BME280;69153;47.918;11.428;2023-06-22T03:47:13;95166.09;;;21.56;57.95
79686;BME280;69153;47.918;11.428;2023-06-22T03:49:39;95166.84;;;21.56;58.06
79686;BME280;69153;47.918;11.428;2023-06-22T03:52:05;95170.78;;;21.61;57.83
79686;BME280;69153;47.918;11.428;2023-06-22T03:54:31;95170.06;;;21.66;57.90
79686;BME280;69153;47.918;11.428;2023-06-22T03:56:58;95164.66;;;21.71;58.10
79686;BME280;69153;47.918;11.428;2023-06-22T03:59:24;95173.47;;;21.78;58.17
79686;BME280;69153;47.918;11.428;2023-06-22T04:01:49;95174.22;;;21.84;57.79
79686;BME280;69153;47.918;11.428;2023-06-22T04:04:16;95171.28;;;21.87;57.77
79686;BME280;69153;47.918;11.428;2023-06-22T04:06:42;95171.28;;;21.87;57.93
79686;BME280;69153;47.918;11.428;2023-06-22T04:09:07;95174.72;;;21.93;57.91
79686;BME280;69153;47.918;11.428;2023-06-22T04:11:33;95169.59;;;22.01;57.76
79686;BME280;69153;47.918;11.428;2023-06-22T04:13:58;95163.69;;;22.08;57.93
79686;BME280;69153;47.918;11.428;2023-06-22T04:16:24;95169.81;;;22.14;57.55
79686;BME280;69153;47.918;11.428;2023-06-22T04:18:49;95170.06;;;22.16;57.59
79686;BME280;69153;47.918;11.428;2023-06-22T04:21:15;95168.06;;;22.22;57.47
79686;BME280;69153;47.918;11.428;2023-06-22T04:23:40;95167.59;;;22.24;57.54
79686;BME280;69153;47.918;11.428;2023-06-22T04:26:06;95176.91;;;22.28;57.58
79686;BME280;69153;47.918;11.428;2023-06-22T04:28:31;95164.41;;;22.31;57.19
79686;BME280;69153;47.918;11.428;2023-06-22T04:31:01;95171.03;;;22.30;57.26
79686;BME280;69153;47.918;11.428;2023-06-22T04:33:28;95174.47;;;22.30;57.68
79686;BME280;69153;47.918;11.428;2023-06-22T04:35:55;95176.19;;;22.28;57.69
79686;BME280;69153;47.918;11.428;2023-06-22T04:38:22;95172.00;;;22.32;57.24
79686;BME280;69153;47.918;11.428;2023-06-22T04:40:48;95166.81;;;22.34;57.57
79686;BME280;69153;47.918;11.428;2023-06-22T04:43:13;95161.19;;;22.38;57.33
79686;BME280;69153;47.918;11.428;2023-06-22T04:45:39;95169.53;;;22.40;57.19
79686;BME280;69153;47.918;11.428;2023-06-22T04:48:05;95171.75;;;22.41;57.08
79686;BME280;69153;47.918;11.428;2023-06-22T04:50:30;95161.66;;;22.53;57.22
79686;BME280;69153;47.918;11.428;2023-06-22T04:52:56;95164.34;;;22.59;56.82
79686;BME280;69153;47.918;11.428;2023-06-22T04:55:21;95162.59;;;22.61;56.95
79686;BME280;69153;47.918;11.428;2023-06-22T04:57:48;95165.53;;;22.63;56.59
79686;BME280;69153;47.918;11.428;2023-06-22T05:00:19;95167.75;;;22.65;56.68
79686;BME280;69153;47.918;11.428;2023-06-22T05:02:46;95165.03;;;22.70;56.66
79686;BME280;69153;47.918;11.428;2023-06-22T05:05:12;95166.72;;;22.73;56.49
79686;BME280;69153;47.918;11.428;2023-06-22T05:07:42;95161.34;;;22.79;56.81
79686;BME280;69153;47.918;11.428;2023-06-22T05:10:12;95150.53;;;22.85;56.66
79686;BME280;69153;47.918;11.428;2023-06-22T05:12:38;95151.25;;;22.74;56.83
79686;BME280;69153;47.918;11.428;2023-06-22T05:15:05;95146.59;;;22.80;56.77
79686;BME280;69153;47.918;11.428;2023-06-22T05:17:31;95148.75;;;22.93;56.84
79686;BME280;69153;47.918;11.428;2023-06-22T05:20:16;95155.81;;;23.07;56.34
79686;BME280;69153;47.918;11.428;2023-06-22T05:22:43;95158.47;;;23.12;56.10
79686;BME280;69153;47.918;11.428;2023-06-22T05:25:10;95147.63;;;23.24;56.10
79686;BME280;69153;47.918;11.428;2023-06-22T05:27:36;95160.38;;;23.29;55.84
79686;BME280;69153;47.918;11.428;2023-06-22T05:30:08;95160.09;;;23.32;55.82
79686;BME280;69153;47.918;11.428;2023-06-22T05:32:35;95160.28;;;23.40;55.69
79686;BME280;69153;47.918;11.428;2023-06-22T05:35:04;95158.31;;;23.40;55.88
79686;BME280;69153;47.918;11.428;2023-06-22T05:37:31;95163.72;;;23.46;55.72
79686;BME280;69153;47.918;11.428;2023-06-22T05:39:56;95156.31;;;23.52;55.65
79686;BME280;69153;47.918;11.428;2023-06-22T05:42:23;95157.28;;;23.55;55.58
79686;BME280;69153;47.918;11.428;2023-06-22T05:44:52;95156.97;;;23.64;55.64
79686;BME280;69153;47.918;11.428;2023-06-22T05:47:24;95148.78;;;23.75;55.57
79686;BME280;69153;47.918;11.428;2023-06-22T05:49:50;95136.44;;;23.79;55.51
79686;BME280;69153;47.918;11.428;2023-06-22T05:52:15;95149.97;;;23.79;55.34
79686;BME280;69153;47.918;11.428;2023-06-22T05:54:41;95150.19;;;23.81;55.32
79686;BME280;69153;47.918;11.428;2023-06-22T05:57:07;95152.50;;;23.72;55.50
79686;BME280;69153;47.918;11.428;2023-06-22T05:59:32;95156.84;;;23.80;55.36
79686;BME280;69153;47.918;11.428;2023-06-22T06:01:57;95149.38;;;23.92;54.98
79686;BME280;69153;47.918;11.428;2023-06-22T06:04:23;95152.72;;;24.04;54.73
79686;BME280;69153;47.918;11.428;2023-06-22T06:06:49;95156.59;;;24.14;54.33
79686;BME280;69153;47.918;11.428;2023-06-22T06:09:14;95144.56;;;24.09;53.83
79686;BME280;69153;47.918;11.428;2023-06-22T06:11:40;95135.09;;;24.21;54.23
79686;BME280;69153;47.918;11.428;2023-06-22T06:14:05;95144.84;;;24.30;54.01
79686;BME280;69153;47.918;11.428;2023-06-22T06:16:32;95144.75;;;24.41;53.34
79686;BME280;69153;47.918;11.428;2023-06-22T06:18:57;95139.56;;;24.43;52.61
79686;BME280;69153;47.918;11.428;2023-06-22T06:21:23;95123.19;;;24.54;52.67
79686;BME280;69153;47.918;11.428;2023-06-22T06:23:49;95130.66;;;24.67;52.08
79686;BME280;69153;47.918;11.428;2023-06-22T06:26:14;95132.53;;;24.78;51.80
79686;BME280;69153;47.918;11.428;2023-06-22T06:28:42;95130.47;;;24.65;50.97
79686;BME280;69153;47.918;11.428;2023-06-22T06:31:08;95128.66;;;24.49;51.11
79686;BME280;69153;47.918;11.428;2023-06-22T06:33:34;95128.91;;;24.51;51.12
79686;BME280;69153;47.918;11.428;2023-06-22T06:36:00;95129.88;;;24.72;50.74
79686;BME280;69153;47.918;11.428;2023-06-22T06:38:31;95128.91;;;24.70;50.46
79686;BME280;69153;47.918;11.428;2023-06-22T06:40:57;95124.03;;;24.19;50.09
79686;BME280;69153;47.918;11.428;2023-06-22T06:43:23;95123.50;;;24.21;51.00
79686;BME280;69153;47.918;11.428;2023-06-22T06:45:50;95115.16;;;24.25;50.57
79686;BME280;69153;47.918;11.428;2023-06-22T06:48:15;95115.75;;;24.36;50.56
79686;BME280;69153;47.918;11.428;2023-06-22T06:50:41;95122.53;;;24.48;49.43
79686;BME280;69153;47.918;11.428;2023-06-22T06:53:06;95125.78;;;24.84;48.72
79686;BME280;69153;47.918;11.428;2023-06-22T06:55:31;95133.75;;;25.01;48.13
79686;BME280;69153;47.918;11.428;2023-06-22T06:57:58;95127.94;;;25.10;47.73
79686;BME280;69153;47.918;11.428;2023-06-22T07:00:25;95125.97;;;25.30;48.39
79686;BME280;69153;47.918;11.428;2023-06-22T07:02:51;95122.59;;;25.42;48.67
79686;BME280;69153;47.918;11.428;2023-06-22T07:05:17;95116.41;;;25.42;47.64
79686;BME280;69153;47.918;11.428;2023-06-22T07:07:42;95122.34;;;25.40;48.00
79686;BME280;69153;47.918;11.428;2023-06-22T07:10:08;95119.47;;;25.51;48.08
79686;BME280;69153;47.918;11.428;2023-06-22T07:12:34;95112.13;;;25.65;47.32
79686;BME280;69153;47.918;11.428;2023-06-22T07:15:05;95106.44;;;25.82;47.82
79686;BME280;69153;47.918;11.428;2023-06-22T07:17:31;95109.81;;;26.01;47.56
79686;BME280;69153;47.918;11.428;2023-06-22T07:19:56;95106.69;;;26.10;45.62
79686;BME280;69153;47.918;11.428;2023-06-22T07:22:22;95107.97;;;26.09;45.75
79686;BME280;69153;47.918;11.428;2023-06-22T07:24:47;95098.00;;;26.12;45.88
79686;BME280;69153;47.918;11.428;2023-06-22T07:27:14;95095.81;;;26.10;46.76
79686;BME280;69153;47.918;11.428;2023-06-22T07:29:42;95095.09;;;26.23;47.00
79686;BME280;69153;47.918;11.428;2023-06-22T07:32:08;95107.97;;;26.36;46.81
79686;BME280;69153;47.918;11.428;2023-06-22T07:34:33;95097.00;;;26.28;46.63
79686;BME280;69153;47.918;11.428;2023-06-22T07:36:59;95094.81;;;26.40;46.25
79686;BME280;69153;47.918;11.428;2023-06-22T07:39:24;95091.06;;;26.56;46.28
79686;BME280;69153;47.918;11.428;2023-06-22T07:41:52;95100.16;;;26.45;46.67
79686;BME280;69153;47.918;11.428;2023-06-22T07:44:18;95093.75;;;26.69;46.42
79686;BME280;69153;47.918;11.428;2023-06-22T07:46:43;95093.06;;;26.89;46.01
79686;BME280;69153;47.918;11.428;2023-06-22T07:49:09;95091.59;;;27.01;46.01
79686;BME280;69153;47.918;11.428;2023-06-22T07:51:34;95082.53;;;26.86;45.72
79686;BME280;69153;47.918;11.428;2023-06-22T07:54:00;95086.38;;;27.03;45.48
79686;BME280;69153;47.918;11.428;2023-06-22T07:56:25;95087.53;;;27.29;44.84
79686;BME280;69153;47.918;11.428;2023-06-22T07:58:51;95083.25;;;27.33;44.92
79686;BME280;69153;47.918;11.428;2023-06-22T08:01:17;95085.19;;;27.46;44.35
79686;BME280;69153;47.918;11.428;2023-06-22T08:03:44;95082.72;;;27.35;44.23
79686;BME280;69153;47.918;11.428;2023-06-22T08:06:10;95080.03;;;27.56;43.71
79686;BME280;69153;47.918;11.428;2023-06-22T08:08:36;95081.00;;;27.87;42.97
79686;BME280;69153;47.918;11.428;2023-06-22T08:11:02;95087.97;;;27.95;43.04
79686;BME280;69153;47.918;11.428;2023-06-22T08:13:28;95083.88;;;28.09;43.30
79686;BME280;69153;47.918;11.428;2023-06-22T08:15:54;95075.88;;;28.04;43.86
79686;BME280;69153;47.918;11.428;2023-06-22T08:18:20;95074.66;;;28.13;43.24
79686;BME280;69153;47.918;11.428;2023-06-22T08:20:45;95077.09;;;28.24;43.01
79686;BME280;69153;47.918;11.428;2023-06-22T08:23:11;95079.78;;;28.16;43.83
79686;BME280;69153;47.918;11.428;2023-06-22T08:25:37;95076.41;;;28.02;44.06
79686;BME280;69153;47.918;11.428;2023-06-22T08:28:04;95065.75;;;28.12;43.41
79686;BME280;69153;47.918;11.428;2023-06-22T08:30:30;95063.41;;;28.16;43.80
79686;BME280;69153;47.918;11.428;2023-06-22T08:32:56;95066.41;;;28.26;44.04
79686;BME280;69153;47.918;11.428;2023-06-22T08:35:25;95069.41;;;28.43;43.19
79686;BME280;69153;47.918;11.428;2023-06-22T08:37:50;95072.84;;;28.43;42.65
79686;BME280;69153;47.918;11.428;2023-06-22T08:40:18;95067.53;;;28.66;43.11
79686;BME280;69153;47.918;11.428;2023-06-22T08:42:46;95062.28;;;28.76;42.30
79686;BME280;69153;47.918;11.428;2023-06-22T08:45:12;95063.22;;;28.78;41.85
79686;BME280;69153;47.918;11.428;2023-06-22T08:47:39;95064.75;;;28.95;42.58
79686;BME280;69153;47.918;11.428;2023-06-22T08:50:05;95071.47;;;29.01;41.74
79686;BME280;69153;47.918;11.428;2023-06-22T08:52:31;95075.66;;;29.02;40.86
79686;BME280;69153;47.918;11.428;2023-06-22T08:54:57;95065.28;;;29.01;41.22
79686;BME280;69153;47.918;11.428;2023-06-22T08:57:27;95060.03;;;29.10;41.19
79686;BME280;69153;47.918;11.428;2023-06-22T08:59:52;95060.03;;;29.10;41.82
79686;BME280;69153;47.918;11.428;2023-06-22T09:02:19;95063.72;;;29.28;41.04
79686;BME280;69153;47.918;11.428;2023-06-22T09:04:48;95063.41;;;29.39;40.58
79686;BME280;69153;47.918;11.428;2023-06-22T09:07:14;95059.41;;;29.56;39.75
79686;BME280;69153;47.918;11.428;2023-06-22T09:09:39;95053.22;;;29.55;40.17
79686;BME280;69153;47.918;11.428;2023-06-22T09:12:05;95057.97;;;29.70;39.62
79686;BME280;69153;47.918;11.428;2023-06-22T09:14:31;95057.97;;;29.85;39.51
79686;BME280;69153;47.918;11.428;2023-06-22T09:16:56;95059.22;;;29.84;39.83
79686;BME280;69153;47.918;11.428;2023-06-22T09:19:21;95066.88;;;29.93;38.36
79686;BME280;69153;47.918;11.428;2023-06-22T09:21:47;95057.94;;;30.08;39.07
79686;BME280;69153;47.918;11.428;2023-06-22T09:24:12;95067.00;;;30.26;37.81
79686;BME280;69153;47.918;11.428;2023-06-22T09:26:39;95052.03;;;30.42;38.02
79686;BME280;69153;47.918;11.428;2023-06-22T09:29:05;95052.22;;;30.44;38.14
79686;BME280;69153;47.918;11.428;2023-06-22T09:31:31;95058.94;;;30.50;38.31
79686;BME280;69153;47.918;11.428;2023-06-22T09:33:56;95051.66;;;30.45;37.94
79686;BME280;69153;47.918;11.428;2023-06-22T09:36:22;95057.66;;;30.59;38.51
79686;BME280;69153;47.918;11.428;2023-06-22T09:38:48;95043.56;;;30.70;37.78
79686;BME280;69153;47.918;11.428;2023-06-22T09:41:14;95041.31;;;30.84;37.95
79686;BME280;69153;47.918;11.428;2023-06-22T09:43:39;95043.16;;;30.81;37.93
79686;BME280;69153;47.918;11.428;2023-06-22T09:46:05;95040.69;;;31.01;37.10
79686;BME280;69153;47.918;11.428;2023-06-22T09:48:32;95036.84;;;31.04;37.46
79686;BME280;69153;47.918;11.428;2023-06-22T09:50:57;95024.78;;;31.07;36.18
79686;BME280;69153;47.918;11.428;2023-06-22T09:53:36;95030.41;;;31.16;36.24
79686;BME280;69153;47.918;11.428;2023-06-22T09:56:05;95025.91;;;31.36;36.12
79686;BME280;69153;47.918;11.428;2023-06-22T09:58:31;95029.63;;;31.48;34.80
79686;BME280;69153;47.918;11.428;2023-06-22T10:00:56;95025.09;;;31.43;34.36
79686;BME280;69153;47.918;11.428;2023-06-22T10:03:22;95018.56;;;31.64;34.37
79686;BME280;69153;47.918;11.428;2023-06-22T10:05:48;95014.44;;;31.80;34.25
79686;BME280;69153;47.918;11.428;2023-06-22T10:08:13;95007.97;;;31.68;34.93
79686;BME280;69153;47.918;11.428;2023-06-22T10:10:39;95005.72;;;31.74;34.68
79686;BME280;69153;47.918;11.428;2023-06-22T10:13:09;95005.50;;;31.79;35.00
79686;BME280;69153;47.918;11.428;2023-06-22T10:15:38;95003.72;;;31.91;34.45
79686;BME280;69153;47.918;11.428;2023-06-22T10:18:04;94996.38;;;31.94;34.44
79686;BME280;69153;47.918;11.428;2023-06-22T10:20:33;95002.91;;;31.99;34.73
79686;BME280;69153;47.918;11.428;2023-06-22T10:22:58;95007.19;;;32.09;34.00
79686;BME280;69153;47.918;11.428;2023-06-22T10:25:24;95001.84;;;32.19;34.10
79686;BME280;69153;47.918;11.428;2023-06-22T10:27:50;95003.25;;;32.20;34.48
79686;BME280;69153;47.918;11.428;2023-06-22T10:30:15;95004.63;;;32.46;32.74
79686;BME280;69153;47.918;11.428;2023-06-22T10:32:42;95003.81;;;32.53;32.96
79686;BME280;69153;47.918;11.428;2023-06-22T10:35:09;94993.28;;;32.59;33.29
79686;BME280;69153;47.918;11.428;2023-06-22T10:37:36;94993.44;;;32.78;31.61
79686;BME280;69153;47.918;11.428;2023-06-22T10:40:02;94989.88;;;32.85;31.45
79686;BME280;69153;47.918;11.428;2023-06-22T10:42:28;94977.03;;;32.88;31.10
79686;BME280;69153;47.918;11.428;2023-06-22T10:44:54;94980.09;;;32.92;30.56
79686;BME280;69153;47.918;11.428;2023-06-22T10:47:19;94994.13;;;32.96;31.55
79686;BME280;69153;47.918;11.428;2023-06-22T10:49:45;94982.38;;;32.86;31.90
79686;BME280;69153;47.918;11.428;2023-06-22T10:52:10;94979.31;;;32.82;31.17
79686;BME280;69153;47.918;11.428;2023-06-22T10:54:37;94985.25;;;32.88;31.67
79686;BME280;69153;47.918;11.428;2023-06-22T10:57:03;94981.25;;;32.98;31.57
79686;BME280;69153;47.918;11.428;2023-06-22T10:59:28;94978.16;;;32.58;31.27
79686;BME280;69153;47.918;11.428;2023-06-22T11:01:58;94976.91;;;32.69;32.13
79686;BME280;69153;47.918;11.428;2023-06-22T11:04:24;94971.53;;;32.88;30.88
79686;BME280;69153;47.918;11.428;2023-06-22T11:06:49;94971.75;;;32.99;30.76
79686;BME280;69153;47.918;11.428;2023-06-22T11:09:15;94968.03;;;33.14;31.49
79686;BME280;69153;47.918;11.428;2023-06-22T11:11:46;94970.69;;;33.22;29.32
79686;BME280;69153;47.918;11.428;2023-06-22T11:14:11;94968.72;;;33.32;30.30
79686;BME280;69153;47.918;11.428;2023-06-22T11:16:37;94974.41;;;33.44;30.56
79686;BME280;69153;47.918;11.428;2023-06-22T11:19:04;94975.13;;;33.44;30.14
79686;BME280;69153;47.918;11.428;2023-06-22T11:21:30;94976.00;;;33.47;29.93
79686;BME280;69153;47.918;11.428;2023-06-22T11:23:56;94977.25;;;33.82;29.95
79686;BME280;69153;47.918;11.428;2023-06-22T11:26:22;94966.84;;;34.00;28.85
79686;BME280;69153;47.918;11.428;2023-06-22T11:28:48;94968.16;;;34.09;29.53
79686;BME280;69153;47.918;11.428;2023-06-22T11:31:14;94964.25;;;34.12;28.26
79686;BME280;69153;47.918;11.428;2023-06-22T11:33:39;94965.56;;;34.11;28.13
79686;BME280;69153;47.918;11.428;2023-06-22T11:36:05;94955.53;;;34.15;28.51
79686;BME280;69153;47.918;11.428;2023-06-22T11:38:30;94946.56;;;34.05;29.09
79686;BME280;69153;47.918;11.428;2023-06-22T11:40:58;94955.13;;;34.09;30.34
79686;BME280;69153;47.918;11.428;2023-06-22T11:43:24;94952.94;;;34.08;30.20
79686;BME280;69153;47.918;11.428;2023-06-22T11:45:49;94952.22;;;34.17;30.95
79686;BME280;69153;47.918;11.428;2023-06-22T11:48:15;94948.16;;;34.18;29.70
79686;BME280;69153;47.918;11.428;2023-06-22T11:50:41;94952.78;;;34.15;29.95
79686;BME280;69153;47.918;11.428;2023-06-22T11:53:06;94950.34;;;34.19;30.47
79686;BME280;69153;47.918;11.428;2023-06-22T11:55:32;94938.19;;;34.13;30.19
79686;BME280;69153;47.918;11.428;2023-06-22T11:57:58;94937.47;;;34.22;29.22
79686;BME280;69153;47.918;11.428;2023-06-22T12:00:29;94932.97;;;34.36;29.53
79686;BME280;69153;47.918;11.428;2023-06-22T12:02:55;94937.75;;;34.45;28.79
79686;BME280;69153;47.918;11.428;2023-06-22T12:05:21;94929.59;;;34.57;28.78
79686;BME280;69153;47.918;11.428;2023-06-22T12:07:48;94933.50;;;34.63;28.50
79686;BME280;69153;47.918;11.428;2023-06-22T12:10:14;94923.47;;;34.68;27.94
79686;BME280;69153;47.918;11.428;2023-06-22T12:12:40;94919.41;;;34.69;27.50
79686;BME280;69153;47.918;11.428;2023-06-22T12:15:06;94914.25;;;34.54;28.55
79686;BME280;69153;47.918;11.428;2023-06-22T12:17:33;94917.53;;;34.81;28.18
79686;BME280;69153;47.918;11.428;2023-06-22T12:19:58;94910.88;;;34.74;29.34
79686;BME280;69153;47.918;11.428;2023-06-22T12:22:24;94910.47;;;34.78;28.36
79686;BME280;69153;47.918;11.428;2023-06-22T12:24:49;94896.19;;;34.91;28.14
79686;BME280;69153;47.918;11.428;2023-06-22T12:27:17;94908.91;;;34.96;28.32
79686;BME280;69153;47.918;11.428;2023-06-22T12:29:45;94891.22;;;34.99;27.46
79686;BME280;69153;47.918;11.428;2023-06-22T12:32:11;94895.56;;;35.02;27.25
79686;BME280;69153;47.918;11.428;2023-06-22T12:34:38;94883.38;;;35.05;27.58
79686;BME280;69153;47.918;11.428;2023-06-22T12:37:04;94891.72;;;35.17;27.94
79686;BME280;69153;47.918;11.428;2023-06-22T12:39:31;94886.47;;;35.21;28.04
79686;BME280;69153;47.918;11.428;2023-06-22T12:41:57;94887.25;;;35.12;26.66
79686;BME280;69153;47.918;11.428;2023-06-22T12:44:22;94887.91;;;35.01;27.63
79686;BME280;69153;47.918;11.428;2023-06-22T12:46:47;94888.56;;;35.11;27.19
79686;BME280;69153;47.918;11.428;2023-06-22T12:49:13;94879.84;;;35.15;25.51
79686;BME280;69153;47.918;11.428;2023-06-22T12:51:42;94884.09;;;35.06;25.91
79686;BME280;69153;47.918;11.428;2023-06-22T12:54:08;94883.47;;;35.17;26.11
79686;BME280;69153;47.918;11.428;2023-06-22T12:56:34;94880.97;;;35.21;25.62